createdAt,value
2022-10-19T00:02:11.489Z,15.00
2022-10-19T00:05:18.247Z,15.13
2022-10-19T00:08:24.917Z,14.99
2022-10-19T00:11:32.619Z,14.84
2022-10-19T00:14:39.344Z,15.05
2022-10-19T00:17:45.815Z,15.14
2022-10-19T00:20:52.581Z,15.06
2022-10-19T00:23:59.371Z,15.35
2022-10-19T00:27:06.383Z,15.21
2022-10-19T00:30:13.468Z,15.11
2022-10-19T00:33:22.420Z,14.82
2022-10-19T00:36:32.182Z,14.82
2022-10-19T00:39:39.295Z,15.10
2022-10-19T00:42:46.120Z,15.31
2022-10-19T00:45:56.138Z,15.56
2022-10-19T00:49:09.894Z,15.51
2022-10-19T00:52:22.348Z,15.25
2022-10-19T00:55:29.121Z,14.76
2022-10-19T00:58:35.880Z,15.10
2022-10-19T01:01:43.591Z,15.00
2022-10-19T01:04:52.970Z,15.29
2022-10-19T01:08:00.442Z,15.31
2022-10-19T01:11:23.731Z,15.50
2022-10-19T01:14:45.617Z,15.44
2022-10-19T01:18:02.574Z,15.67
2022-10-19T01:21:20.142Z,15.81
2022-10-19T01:24:57.855Z,15.82
2022-10-19T01:28:19.233Z,15.88
2022-10-19T01:31:36.263Z,15.69
2022-10-19T01:34:50.061Z,15.14
2022-10-19T01:38:05.529Z,14.81
2022-10-19T01:41:19.531Z,15.04
2022-10-19T01:44:30.978Z,14.51
2022-10-19T01:47:42.546Z,14.81
2022-10-19T01:50:55.656Z,14.76
2022-10-19T01:54:06.718Z,14.83
2022-10-19T01:57:18.486Z,15.11
2022-10-19T02:00:27.147Z,14.98
2022-10-19T02:03:35.096Z,14.92
2022-10-19T02:06:42.267Z,15.08
2022-10-19T02:09:48.912Z,14.86
2022-10-19T02:12:57.293Z,15.06
2022-10-19T02:16:08.399Z,14.71
2022-10-19T02:19:16.910Z,14.69
2022-10-19T02:22:23.639Z,14.41
2022-10-19T02:25:30.364Z,14.97
2022-10-19T02:28:37.973Z,14.98
2022-10-19T02:31:45.438Z,15.01
2022-10-19T02:34:52.254Z,15.07
2022-10-19T02:38:02.789Z,14.53
2022-10-19T02:41:16.910Z,14.75
2022-10-19T02:44:28.308Z,14.39
2022-10-19T02:47:39.745Z,14.86
2022-10-19T02:50:48.588Z,15.00
2022-10-19T02:53:55.338Z,14.68
2022-10-19T02:57:02.165Z,14.88
2022-10-19T03:00:10.964Z,14.99
2022-10-19T03:03:17.642Z,15.05
2022-10-19T03:06:24.315Z,14.33
2022-10-19T03:09:31.006Z,14.85
2022-10-19T03:12:37.608Z,14.85
2022-10-19T03:15:44.305Z,14.67
2022-10-19T03:18:52.482Z,14.58
2022-10-19T03:21:59.193Z,14.79
2022-10-19T03:25:06.255Z,14.88
2022-10-19T03:28:12.894Z,14.71
2022-10-19T03:31:20.034Z,14.74
2022-10-19T03:34:26.617Z,14.11
2022-10-19T03:37:33.416Z,14.37
2022-10-19T03:40:40.341Z,14.28
2022-10-19T03:43:47.189Z,14.36
2022-10-19T03:46:53.780Z,13.95
2022-10-19T03:50:00.599Z,13.95
2022-10-19T03:53:07.269Z,14.06
2022-10-19T03:56:16.707Z,13.99
2022-10-19T03:59:23.064Z,14.31
2022-10-19T04:02:31.421Z,13.97
2022-10-19T04:05:37.931Z,14.22
2022-10-19T04:08:45.384Z,14.37
2022-10-19T04:11:52.480Z,14.33
2022-10-19T04:14:59.331Z,14.64
2022-10-19T04:18:06.090Z,14.73
2022-10-19T04:21:24.166Z,15.07
2022-10-19T04:24:30.891Z,14.99
2022-10-19T04:27:37.495Z,14.38
2022-10-19T04:30:44.207Z,14.39
2022-10-19T04:33:50.808Z,14.82
2022-10-19T04:36:59.651Z,14.67
2022-10-19T04:40:12.839Z,14.76
2022-10-19T04:43:21.792Z,14.81
2022-10-19T04:46:29.712Z,14.75
2022-10-19T04:49:36.275Z,14.81
2022-10-19T04:52:45.112Z,14.56
2022-10-19T04:55:51.647Z,14.68
2022-10-19T04:58:59.854Z,14.54
2022-10-19T05:02:06.747Z,14.46
2022-10-19T05:05:13.767Z,14.61
2022-10-19T05:08:20.432Z,14.49
2022-10-19T05:11:27.704Z,14.09
2022-10-19T05:14:37.832Z,14.23
2022-10-19T05:17:47.185Z,13.87
2022-10-19T05:21:01.004Z,13.94
2022-10-19T05:24:07.844Z,14.09
2022-10-19T05:27:14.412Z,13.92
2022-10-19T05:30:21.834Z,14.01
2022-10-19T05:33:28.500Z,14.23
2022-10-19T05:36:37.039Z,14.51
2022-10-19T05:39:43.930Z,14.31
2022-10-19T05:42:50.498Z,13.95
2022-10-19T05:45:57.383Z,14.10
2022-10-19T05:49:04.491Z,14.17
2022-10-19T05:52:11.043Z,13.74
2022-10-19T05:55:17.864Z,13.50
2022-10-19T05:58:25.142Z,13.29
2022-10-19T06:01:33.380Z,13.34
2022-10-19T06:04:40.199Z,13.33
2022-10-19T06:07:46.778Z,13.58
2022-10-19T06:10:53.884Z,13.80
2022-10-19T06:14:02.589Z,13.84
2022-10-19T06:17:09.345Z,14.20
2022-10-19T06:20:16.193Z,14.08
2022-10-19T06:23:22.866Z,13.83
2022-10-19T06:26:30.847Z,13.40
2022-10-19T06:29:38.022Z,13.65
2022-10-19T06:32:44.878Z,13.66
2022-10-19T06:35:51.775Z,13.97
2022-10-19T06:38:59.900Z,14.15
2022-10-19T06:42:06.706Z,14.01
2022-10-19T06:45:14.837Z,13.77
2022-10-19T06:48:22.006Z,13.96
2022-10-19T06:51:32.068Z,14.29
2022-10-19T06:54:38.775Z,14.05
2022-10-19T06:57:45.777Z,14.05
2022-10-19T07:00:58.295Z,13.84
2022-10-19T07:04:05.181Z,13.81
2022-10-19T07:07:11.944Z,13.06
2022-10-19T07:10:18.794Z,13.57
2022-10-19T07:13:25.739Z,13.77
2022-10-19T07:16:32.390Z,13.89
2022-10-19T07:19:39.467Z,13.79
2022-10-19T07:22:46.113Z,13.74
2022-10-19T07:25:54.018Z,13.63
2022-10-19T07:29:01.231Z,13.80
2022-10-19T07:32:08.246Z,13.73
2022-10-19T07:35:14.996Z,13.94
2022-10-19T07:38:21.589Z,13.90
2022-10-19T07:41:28.494Z,14.22
2022-10-19T07:44:35.259Z,14.38
2022-10-19T07:47:42.076Z,13.90
2022-10-19T07:50:51.485Z,13.69
2022-10-19T07:53:56.560Z,14.10
2022-10-19T07:57:03.194Z,14.60
2022-10-19T08:00:12.690Z,14.68
2022-10-19T08:03:57.637Z,14.46
2022-10-19T08:06:46.199Z,14.41
2022-10-19T08:09:54.131Z,14.51
2022-10-19T08:13:01.243Z,14.39
2022-10-19T08:16:20.997Z,14.58
2022-10-19T08:19:26.064Z,14.23
2022-10-19T08:22:33.079Z,14.26
2022-10-19T08:25:39.825Z,14.47
2022-10-19T08:28:46.685Z,14.29
2022-10-19T08:31:53.451Z,14.29
2022-10-19T08:35:00.111Z,14.00
2022-10-19T08:38:07.091Z,14.17
2022-10-19T08:41:24.285Z,14.32
2022-10-19T08:44:48.765Z,14.48
2022-10-19T08:48:08.088Z,14.34
2022-10-19T08:51:14.738Z,14.40
2022-10-19T08:54:22.036Z,14.50
2022-10-19T08:57:40.181Z,14.55
2022-10-19T09:00:52.270Z,15.05
2022-10-19T09:04:03.616Z,15.47
2022-10-19T09:07:32.723Z,15.08
2022-10-19T09:10:41.878Z,14.42
2022-10-19T09:14:05.991Z,14.80
2022-10-19T09:17:17.000Z,14.55
2022-10-19T09:20:28.254Z,14.43
2022-10-19T09:23:40.753Z,14.47
2022-10-19T09:26:53.469Z,14.71
2022-10-19T09:30:03.772Z,14.89
2022-10-19T09:33:17.240Z,15.27
2022-10-19T09:36:39.380Z,15.50
2022-10-19T09:39:54.845Z,15.65
2022-10-19T09:43:09.003Z,15.77
2022-10-19T09:46:27.373Z,15.57
2022-10-19T09:49:45.097Z,15.47
2022-10-19T09:52:53.691Z,15.89
2022-10-19T09:56:06.234Z,16.12
2022-10-19T09:59:24.251Z,16.05
2022-10-19T10:02:34.916Z,15.68
2022-10-19T10:05:48.676Z,15.36
2022-10-19T10:08:59.010Z,15.28
2022-10-19T10:12:09.080Z,14.97
2022-10-19T10:15:20.901Z,15.15
2022-10-19T10:18:29.813Z,15.10
2022-10-19T10:21:47.250Z,15.13
2022-10-19T10:24:57.491Z,15.71
2022-10-19T10:28:18.238Z,15.84
2022-10-19T10:31:28.680Z,15.36
2022-10-19T10:34:58.539Z,15.56
2022-10-19T10:38:13.824Z,15.72
2022-10-19T10:41:24.138Z,15.68
2022-10-19T10:44:35.167Z,15.39
2022-10-19T10:47:48.219Z,15.70
2022-10-19T10:50:55.379Z,15.36
2022-10-19T10:54:16.948Z,14.92
2022-10-19T10:57:26.659Z,14.74
2022-10-19T11:00:35.490Z,14.52
2022-10-19T11:03:51.643Z,15.05
2022-10-19T11:07:02.967Z,15.16
2022-10-19T11:10:21.274Z,15.10
2022-10-19T11:13:34.417Z,15.46
2022-10-19T11:16:46.476Z,15.55
2022-10-19T11:19:53.805Z,15.46
2022-10-19T11:23:12.214Z,16.10
2022-10-19T11:26:27.685Z,16.37
2022-10-19T11:29:49.982Z,16.78
2022-10-19T11:33:07.929Z,17.21
2022-10-19T11:36:26.058Z,16.81
2022-10-19T11:39:42.867Z,16.27
2022-10-19T11:43:02.761Z,16.68
2022-10-19T11:46:15.797Z,16.79
2022-10-19T11:49:38.615Z,17.13
2022-10-19T11:52:54.276Z,17.62
2022-10-19T11:56:09.090Z,17.23
2022-10-19T11:59:28.532Z,16.46
2022-10-19T12:03:00.361Z,17.18
2022-10-19T12:06:18.415Z,16.80
2022-10-19T12:09:40.627Z,16.60
2022-10-19T12:12:50.231Z,17.49
2022-10-19T12:16:00.521Z,18.10
2022-10-19T12:19:14.021Z,17.75
2022-10-19T12:22:23.571Z,16.46
2022-10-19T12:25:30.496Z,15.60
2022-10-19T12:28:40.001Z,14.88
2022-10-19T12:31:49.215Z,15.18
2022-10-19T12:35:03.396Z,15.44
2022-10-19T12:38:16.865Z,14.95
2022-10-19T12:41:32.411Z,14.59
2022-10-19T12:45:03.671Z,15.31
2022-10-19T12:48:25.508Z,14.98
2022-10-19T12:51:45.617Z,14.45
2022-10-19T12:54:52.551Z,14.01
2022-10-19T12:58:06.234Z,14.39
2022-10-19T13:01:19.078Z,15.20
2022-10-19T13:04:28.698Z,15.12
2022-10-19T13:07:37.883Z,14.81
2022-10-19T13:11:09.976Z,14.74
2022-10-19T13:14:44.139Z,15.33
2022-10-19T13:17:52.004Z,15.34
2022-10-19T13:21:00.443Z,14.91
2022-10-19T13:24:29.733Z,14.53
2022-10-19T13:27:40.495Z,14.30
2022-10-19T13:31:09.351Z,14.19
2022-10-19T13:34:18.249Z,13.96
2022-10-19T13:37:24.984Z,13.70
2022-10-19T13:40:33.517Z,13.39
2022-10-19T13:43:52.401Z,13.18
2022-10-19T13:47:25.414Z,13.09
2022-10-19T13:50:42.609Z,13.05
2022-10-19T13:54:01.226Z,13.53
2022-10-19T13:57:24.295Z,14.90
2022-10-19T14:00:35.769Z,14.72
2022-10-19T14:03:57.093Z,14.19
2022-10-19T14:07:12.278Z,13.80
2022-10-19T14:10:22.782Z,13.63
2022-10-19T14:13:36.237Z,13.63
2022-10-19T14:16:56.038Z,13.67
2022-10-19T14:20:25.035Z,13.72
2022-10-19T14:23:34.436Z,13.79
2022-10-19T14:26:41.255Z,13.87
2022-10-19T14:29:50.258Z,13.90
2022-10-19T14:33:01.132Z,13.94
2022-10-19T14:36:17.304Z,14.01
2022-10-19T14:39:33.542Z,13.93
2022-10-19T14:42:43.765Z,13.90
2022-10-19T14:46:10.192Z,13.72
2022-10-19T14:49:17.001Z,13.48
2022-10-19T14:52:29.274Z,13.45
2022-10-19T14:55:40.539Z,13.49
2022-10-19T14:58:53.988Z,13.49
2022-10-19T15:02:03.638Z,13.52
2022-10-19T15:05:22.251Z,13.55
2022-10-19T15:08:40.380Z,13.58
2022-10-19T15:11:50.032Z,13.61
2022-10-19T15:14:58.562Z,13.54
2022-10-19T15:18:13.173Z,13.25
2022-10-19T15:21:23.638Z,12.82
2022-10-19T15:24:30.734Z,12.42
2022-10-19T15:27:39.404Z,12.05
2022-10-19T15:30:46.643Z,11.70
2022-10-19T15:33:55.050Z,11.41
2022-10-19T15:37:03.580Z,11.13
2022-10-19T15:40:21.203Z,10.90
2022-10-19T15:43:38.847Z,10.67
2022-10-19T15:47:23.410Z,10.48
2022-10-19T15:50:38.542Z,11.76
2022-10-19T15:53:45.285Z,12.71
2022-10-19T15:56:56.455Z,11.96
2022-10-19T16:00:09.247Z,11.18
2022-10-19T16:03:16.445Z,10.63
2022-10-19T16:06:26.011Z,10.71
2022-10-19T16:09:32.857Z,12.21
2022-10-19T16:12:39.608Z,12.99
2022-10-19T16:15:50.010Z,12.27
2022-10-19T16:19:04.777Z,11.29
2022-10-19T16:22:11.546Z,10.60
2022-10-19T16:25:21.192Z,10.06
2022-10-19T16:28:27.919Z,9.67
2022-10-19T16:31:34.562Z,10.39
2022-10-19T16:34:41.464Z,12.13
2022-10-19T16:37:48.182Z,13.14
2022-10-19T16:40:55.008Z,12.41
2022-10-19T16:44:01.656Z,11.26
2022-10-19T16:47:08.231Z,10.47
2022-10-19T16:50:14.779Z,9.85
2022-10-19T16:53:21.304Z,9.81
2022-10-19T16:56:30.719Z,11.24
2022-10-19T16:59:37.514Z,12.28
2022-10-19T17:02:45.832Z,12.15
2022-10-19T17:05:53.503Z,10.93
2022-10-19T17:12:28.019Z,9.37
2022-10-19T17:15:43.052Z,9.31
2022-10-19T17:18:52.380Z,10.66
2022-10-19T17:21:59.684Z,11.85
2022-10-19T17:25:07.308Z,11.82
2022-10-19T17:28:13.946Z,10.69
2022-10-19T17:31:20.660Z,9.79
2022-10-19T17:34:28.532Z,9.15
2022-10-19T17:37:35.705Z,9.71
2022-10-19T17:40:43.050Z,11.10
2022-10-19T17:43:51.868Z,11.96
2022-10-19T17:46:58.628Z,11.95
2022-10-19T17:50:05.705Z,10.91
2022-10-19T17:53:12.335Z,9.87
2022-10-19T17:56:21.076Z,9.12
2022-10-19T17:59:34.838Z,8.55
2022-10-19T18:02:44.462Z,9.34
2022-10-19T18:06:00.873Z,10.60
2022-10-19T18:09:10.271Z,11.44
2022-10-19T18:12:16.785Z,12.14
2022-10-19T18:15:23.518Z,12.47
2022-10-19T18:18:32.013Z,11.25
2022-10-19T18:21:41.014Z,9.98
2022-10-19T18:24:47.908Z,9.44
2022-10-19T18:27:54.612Z,10.44
2022-10-19T18:31:07.573Z,11.22
2022-10-19T18:34:16.131Z,11.55
2022-10-19T18:37:22.877Z,11.83
2022-10-19T18:40:29.533Z,11.79
2022-10-19T18:43:36.211Z,10.58
2022-10-19T18:46:43.288Z,9.36
2022-10-19T18:49:49.913Z,8.58
2022-10-19T18:52:56.468Z,9.47
2022-10-19T18:56:05.019Z,10.60
2022-10-19T18:59:11.636Z,11.13
2022-10-19T19:02:22.668Z,11.38
2022-10-19T19:05:35.985Z,10.25
2022-10-19T19:11:58.076Z,8.49
2022-10-19T19:15:08.200Z,9.62
2022-10-19T19:18:14.830Z,10.61
2022-10-19T19:21:23.523Z,11.24
2022-10-19T19:24:32.206Z,11.79
2022-10-19T19:30:50.803Z,10.12
2022-10-19T19:33:57.387Z,8.97
2022-10-19T19:37:07.411Z,8.48
2022-10-19T19:40:17.885Z,9.57
2022-10-19T19:43:25.582Z,10.56
2022-10-19T19:46:32.347Z,11.28
2022-10-19T19:49:39.065Z,11.48
2022-10-19T19:52:45.757Z,10.19
2022-10-19T19:55:52.855Z,8.81
2022-10-19T19:59:03.454Z,8.23
2022-10-19T20:02:12.133Z,9.20
2022-10-19T20:05:18.796Z,10.12
2022-10-19T20:08:26.514Z,10.68
2022-10-19T20:11:33.990Z,11.09
2022-10-19T20:14:42.606Z,10.95
2022-10-19T20:17:49.468Z,9.59
2022-10-19T20:20:56.008Z,8.39
2022-10-19T20:24:03.143Z,7.90
2022-10-19T20:27:09.889Z,8.94
2022-10-19T20:30:16.601Z,9.90
2022-10-19T20:33:23.373Z,10.36
2022-10-19T20:36:29.942Z,10.67
2022-10-19T20:39:36.636Z,10.86
2022-10-19T20:42:44.126Z,10.55
2022-10-19T20:45:50.804Z,8.98
2022-10-19T20:48:59.668Z,7.84
2022-10-19T20:52:06.535Z,8.39
2022-10-19T20:55:13.448Z,9.12
2022-10-19T20:58:20.056Z,9.67
2022-10-19T21:01:27.403Z,10.08
2022-10-19T21:04:35.660Z,10.39
2022-10-19T21:07:42.280Z,10.68
2022-10-19T21:10:49.079Z,10.23
2022-10-19T21:13:58.585Z,8.76
2022-10-19T21:17:05.375Z,7.60
2022-10-19T21:20:12.673Z,7.12
2022-10-19T21:23:19.304Z,8.02
2022-10-19T21:26:27.524Z,8.86
2022-10-19T21:29:34.228Z,9.33
2022-10-19T21:32:40.827Z,9.62
2022-10-19T21:35:47.516Z,9.90
2022-10-19T21:38:54.410Z,10.09
2022-10-19T21:42:00.923Z,10.32
2022-10-19T21:45:29.392Z,10.51
2022-10-19T21:48:36.660Z,10.11
2022-10-19T21:51:45.779Z,8.48
2022-10-19T21:54:54.298Z,7.64
2022-10-19T21:58:01.204Z,8.50
2022-10-19T22:01:08.988Z,9.23
2022-10-19T22:04:18.215Z,9.55
2022-10-19T22:07:24.875Z,9.56
2022-10-19T22:10:31.490Z,9.76
2022-10-19T22:13:38.895Z,9.90
2022-10-19T22:16:45.472Z,10.07
2022-10-19T22:19:53.340Z,10.10
2022-10-19T22:22:59.859Z,8.83
2022-10-19T22:26:14.652Z,7.04
2022-10-19T22:29:21.667Z,6.35
2022-10-19T22:32:28.240Z,7.38
2022-10-19T22:35:34.806Z,8.32
2022-10-19T22:38:42.198Z,8.88
2022-10-19T22:41:48.695Z,9.18
2022-10-19T22:44:55.244Z,9.03
2022-10-19T22:48:01.858Z,7.64
2022-10-19T22:51:08.686Z,6.71
2022-10-19T22:54:15.443Z,7.46
2022-10-19T22:57:22.067Z,8.24
2022-10-19T23:00:29.075Z,8.68
2022-10-19T23:03:37.682Z,8.93
2022-10-19T23:06:44.491Z,9.08
2022-10-19T23:09:51.112Z,8.03
2022-10-19T23:12:57.741Z,6.62
2022-10-19T23:16:04.400Z,5.97
2022-10-19T23:19:11.149Z,6.93
2022-10-19T23:22:17.671Z,7.90
2022-10-19T23:25:24.303Z,8.47
2022-10-19T23:28:32.825Z,8.44
2022-10-19T23:31:39.565Z,7.04
2022-10-19T23:34:48.391Z,5.73
2022-10-19T23:37:55.592Z,5.22
2022-10-19T23:41:02.576Z,6.32
2022-10-19T23:44:10.422Z,7.17
2022-10-19T23:47:17.003Z,7.64
2022-10-19T23:50:23.796Z,8.00
2022-10-19T23:53:34.644Z,8.31
2022-10-19T23:56:43.689Z,8.03
2022-10-19T23:59:50.736Z,6.53
